Time;durP1;ratioP1;P1;durP2;ratioP2;P2;SDS_P1;SDS_P2;PMS_P1;PMS_P2;Temp;Humidity;BMP_temperature;BMP_pressure;BME280_temperature;BME280_humidity;BME280_pressure;Samples;Min_cycle;Max_cycle;Signal;HPM_P1;HPM_P2
2023/03/31 00:02:20;;;;;;;;;4.50;2.25;;;;;12.66;92.38;99992.81;5115905;27;45294;-66
2023/03/31 00:04:51;;;;;;;;;2.25;1.00;;;;;12.60;93.29;99995.69;5115811;27;45348;-66
2023/03/31 00:07:20;;;;;;;;;7.00;4.00;;;;;12.60;92.56;99986.91;5114395;27;46552;-67
2023/03/31 00:09:47;;;;;;;;;4.00;1.00;;;;;12.63;92.44;99992.06;5113569;27;45877;-66
2023/03/31 00:12:16;;;;;;;;;4.25;2.00;;;;;12.57;93.08;99968.56;5115303;27;45657;-66
2023/03/31 00:14:42;;;;;;;;;2.75;1.00;;;;;12.52;93.85;99955.56;5118688;27;45584;-66
2023/03/31 00:17:09;;;;;;;;;3.50;1.50;;;;;12.52;94.58;99958.22;5117450;27;46458;-66
2023/03/31 00:19:35;;;;;;;;;2.00;1.00;;;;;12.46;93.08;99943.50;5118985;27;45423;-66
2023/03/31 00:22:01;;;;;;;;;8.00;1.50;;;;;12.47;93.39;99924.06;5118431;27;45393;-66
2023/03/31 00:24:28;;;;;;;;;2.00;0.75;;;;;12.48;95.14;99927.59;5119469;27;45404;-66
2023/03/31 00:26:53;;;;;;;;;1.75;1.00;;;;;12.41;94.68;99908.50;5119049;27;46460;-67
2023/03/31 00:29:18;;;;;;;;;2.50;1.00;;;;;12.24;92.87;99874.06;5117825;27;45405;-67
2023/03/31 00:31:44;;;;;;;;;2.50;1.00;;;;;12.38;94.76;99887.53;5119043;27;45767;-66
2023/03/31 00:34:09;;;;;;;;;4.25;2.00;;;;;12.47;95.90;99897.66;5118828;27;45452;-66
2023/03/31 00:36:35;;;;;;;;;1.00;1.00;;;;;12.57;94.64;99884.06;5118635;27;47294;-66
2023/03/31 00:39:07;;;;;;;;;1.50;1.00;;;;;12.47;93.92;99858.06;5118978;27;45444;-67
2023/03/31 00:41:35;;;;;;;;;8.25;1.00;;;;;12.32;94.02;99819.16;5118851;27;45449;-67
2023/03/31 00:44:07;;;;;;;;;2.75;1.00;;;;;12.54;94.54;99862.13;5118359;27;45440;-67
2023/03/31 00:46:49;;;;;;;;;1.75;1.75;;;;;12.52;93.95;99847.31;5116453;27;45530;-67
2023/03/31 00:49:22;;;;;;;;;2.75;1.75;;;;;12.42;93.52;99828.38;5118361;27;45325;-67
2023/03/31 00:51:51;;;;;;;;;2.75;2.00;;;;;12.45;94.46;99828.25;5118403;27;45339;-66
2023/03/31 00:54:18;;;;;;;;;3.25;1.75;;;;;12.39;93.98;99815.31;5118990;27;45439;-67
2023/03/31 00:56:47;;;;;;;;;4.25;2.00;;;;;12.48;94.96;99806.13;5118331;27;47102;-67
2023/03/31 00:59:14;;;;;;;;;2.50;0.75;;;;;12.33;94.46;99776.84;5118526;27;45391;-67
2023/03/31 01:01:43;;;;;;;;;2.75;2.00;;;;;12.43;96.10;99786.97;5118226;27;45503;-67
2023/03/31 01:04:10;;;;;;;;;2.25;1.25;;;;;12.55;94.16;99799.63;5118410;27;45482;-67
2023/03/31 01:06:49;;;;;;;;;2.00;1.00;;;;;12.47;94.57;99768.28;5117169;27;46338;-67
2023/03/31 01:09:15;;;;;;;;;1.25;0.75;;;;;12.51;94.53;99769.00;5118336;27;45359;-67
2023/03/31 01:11:45;;;;;;;;;2.75;2.75;;;;;12.36;95.23;99750.31;5118641;27;45492;-67
2023/03/31 01:14:11;;;;;;;;;2.75;1.25;;;;;12.46;94.84;99766.59;5118468;27;45679;-67
2023/03/31 01:16:38;;;;;;;;;5.00;2.25;;;;;12.46;93.99;99757.78;5114284;27;45444;-67
2023/03/31 01:19:09;;;;;;;;;6.00;2.25;;;;;12.37;95.54;99743.25;5118128;27;45269;-67
2023/03/31 01:21:41;;;;;;;;;5.50;2.00;;;;;12.48;94.32;99751.53;5118101;27;45468;-66
2023/03/31 01:24:12;;;;;;;;;1.00;1.00;;;;;12.48;94.61;99734.84;5116583;27;45495;-67
2023/03/31 01:26:43;;;;;;;;;6.25;2.00;;;;;12.40;96.85;99736.97;5117858;27;46882;-66
2023/03/31 01:29:41;;;;;;;;;2.00;2.00;;;;;12.42;96.04;99735.13;5117997;27;45381;-67
2023/03/31 01:32:45;;;;;;;;;3.50;2.00;;;;;12.43;94.50;99718.34;5054160;28;45673;-66
2023/03/31 01:35:26;;;;;;;;;3.25;1.00;;;;;12.41;95.01;99717.56;4993569;28;46103;-67
2023/03/31 01:38:18;;;;;;;;;4.00;3.00;;;;;12.39;94.65;99698.28;4989251;28;46866;-67
2023/03/31 01:41:02;;;;;;;;;5.50;1.50;;;;;12.37;94.47;99693.09;4993186;28;45592;-67
2023/03/31 01:43:41;;;;;;;;;3.00;2.00;;;;;12.33;95.04;99679.19;4997793;28;45419;-67
2023/03/31 01:46:18;;;;;;;;;3.00;2.75;;;;;12.29;94.16;99677.63;4993723;28;45777;-67
2023/03/31 01:48:46;;;;;;;;;2.00;2.00;;;;;12.33;93.59;99666.00;4993876;28;45465;-66
2023/03/31 01:51:28;;;;;;;;;3.00;2.00;;;;;12.29;93.47;99639.81;4993581;28;45706;-67
2023/03/31 01:54:05;;;;;;;;;2.00;2.00;;;;;12.28;93.26;99635.47;4994505;28;45547;-67
2023/03/31 01:56:40;;;;;;;;;2.00;2.00;;;;;12.25;93.29;99617.97;4994649;28;45419;-66
2023/03/31 01:59:27;;;;;;;;;3.00;1.25;;;;;12.33;92.61;99629.03;4994003;28;45369;-67
2023/03/31 02:01:59;;;;;;;;;2.00;2.00;;;;;12.31;92.19;99622.97;4994192;28;45331;-67
2023/03/31 02:04:32;;;;;;;;;2.00;0.00;;;;;12.24;92.42;99605.72;4994090;28;45667;-67
2023/03/31 02:07:11;;;;;;;;;2.00;2.00;;;;;12.24;92.93;99589.88;5007438;28;45526;-67
2023/03/31 02:09:43;;;;;;;;;0.00;0.00;;;;;12.26;92.13;99585.41;5053644;28;45478;-67
2023/03/31 02:12:11;;;;;;;;;1.00;1.00;;;;;12.21;91.10;99576.00;5072050;27;45797;-67
2023/03/31 02:14:42;;;;;;;;;2.25;0.75;;;;;12.21;91.08;99584.75;5104354;27;45629;-67
2023/03/31 02:17:17;;;;;;;;;0.00;0.00;;;;;12.11;91.06;99557.97;5117209;27;45406;-67
2023/03/31 02:19:45;;;;;;;;;0.25;0.00;;;;;12.07;91.56;99550.25;5117160;27;45590;-67
2023/03/31 02:22:13;;;;;;;;;0.25;0.00;;;;;12.11;89.06;99546.53;5116985;27;45505;-67
2023/03/31 02:24:40;;;;;;;;;0.00;0.00;;;;;12.07;89.39;99551.13;5115725;27;45371;-66
2023/03/31 02:27:16;;;;;;;;;0.00;0.00;;;;;12.01;91.35;99551.44;5117383;27;45424;-66
2023/03/31 02:29:42;;;;;;;;;0.00;0.00;;;;;11.94;89.86;99542.09;5116451;27;45754;-66
2023/03/31 02:32:10;;;;;;;;;0.00;0.00;;;;;11.98;90.09;99543.63;5117112;27;45389;-67
2023/03/31 02:34:35;;;;;;;;;0.00;0.00;;;;;11.90;89.69;99525.50;5116175;27;45734;-67
2023/03/31 02:37:01;;;;;;;;;0.50;0.00;;;;;11.86;89.12;99534.50;5117243;27;45354;-67
2023/03/31 02:39:32;;;;;;;;;1.00;0.00;;;;;11.70;89.73;99497.47;5116359;27;45729;-67
2023/03/31 02:41:58;;;;;;;;;0.00;0.00;;;;;11.80;89.09;99526.88;5116900;27;45453;-67
2023/03/31 02:44:23;;;;;;;;;0.00;0.00;;;;;11.73;89.38;99521.03;5117092;27;45436;-67
2023/03/31 02:46:49;;;;;;;;;0.00;0.00;;;;;11.71;89.51;99508.88;5116852;27;45649;-66
2023/03/31 02:49:16;;;;;;;;;0.00;0.00;;;;;11.68;89.86;99513.34;5116685;27;46717;-67
2023/03/31 02:52:00;;;;;;;;;0.00;0.00;;;;;11.70;88.93;99512.44;5116453;27;45404;-67
2023/03/31 02:54:51;;;;;;;;;0.00;0.00;;;;;11.66;87.50;99509.06;5116582;27;45326;-66
2023/03/31 02:57:20;;;;;;;;;0.00;0.00;;;;;11.59;87.25;99511.16;5116695;27;45716;-67
2023/03/31 03:00:08;;;;;;;;;0.25;0.00;;;;;11.50;87.91;99496.63;5116526;27;47350;-66
2023/03/31 03:02:51;;;;;;;;;0.75;0.00;;;;;11.46;89.15;99487.16;5109348;27;45766;-67
2023/03/31 03:05:37;;;;;;;;;0.75;0.00;;;;;11.45;90.05;99474.03;5116570;27;45301;-66
2023/03/31 03:08:18;;;;;;;;;0.00;0.00;;;;;11.45;88.50;99466.97;5116337;27;45737;-66
2023/03/31 03:11:02;;;;;;;;;0.00;0.00;;;;;11.40;88.83;99455.81;5115753;27;46469;-66
2023/03/31 03:13:34;;;;;;;;;0.00;0.00;;;;;11.35;89.61;99457.81;5116645;27;45393;-66
2023/03/31 03:16:07;;;;;;;;;1.00;0.00;;;;;11.07;89.27;99398.50;5115150;27;45619;-66
2023/03/31 03:18:32;;;;;;;;;0.00;0.00;;;;;11.27;90.63;99429.19;5122041;27;45728;-66
2023/03/31 03:20:57;;;;;;;;;0.00;0.00;;;;;11.31;90.50;99428.13;5115916;27;45545;-67
2023/03/31 03:23:23;;;;;;;;;1.00;0.00;;;;;11.30;91.68;99418.50;5116284;27;45409;-66
2023/03/31 03:25:48;;;;;;;;;0.25;0.00;;;;;11.32;91.82;99423.69;5116529;27;45386;-66
2023/03/31 03:28:13;;;;;;;;;0.00;0.00;;;;;11.33;91.72;99415.72;5116498;27;45801;-66
2023/03/31 03:30:39;;;;;;;;;0.25;0.00;;;;;11.35;92.71;99406.88;5115170;27;47033;-66
2023/03/31 03:33:05;;;;;;;;;0.00;0.00;;;;;11.07;92.88;99368.69;5116155;27;45291;-66
2023/03/31 03:35:32;;;;;;;;;0.00;0.00;;;;;11.23;91.13;99395.16;5116643;27;45438;-66
2023/03/31 03:37:58;;;;;;;;;1.00;0.00;;;;;11.25;91.36;99390.66;5116092;27;45548;-66
2023/03/31 03:40:23;;;;;;;;;0.00;0.00;;;;;11.21;94.44;99387.31;5115185;27;45738;-66
2023/03/31 03:42:48;;;;;;;;;0.00;0.00;;;;;11.22;91.84;99388.16;5115311;27;45400;-66
2023/03/31 03:45:13;;;;;;;;;0.00;0.00;;;;;11.21;93.73;99386.44;5114811;27;45527;-66
2023/03/31 03:47:39;;;;;;;;;0.00;0.00;;;;;11.22;92.23;99377.63;5119019;27;45623;-66
2023/03/31 03:50:05;;;;;;;;;0.00;0.00;;;;;11.15;92.21;99361.25;5119147;27;45758;-66
2023/03/31 03:52:30;;;;;;;;;0.00;0.00;;;;;11.17;94.25;99361.19;5119162;27;45823;-66
2023/03/31 03:54:56;;;;;;;;;1.00;0.00;;;;;11.24;92.89;99359.94;5118411;27;45619;-66
2023/03/31 03:57:21;;;;;;;;;0.00;0.00;;;;;11.26;93.09;99356.31;5120219;27;45739;-66
2023/03/31 03:59:46;;;;;;;;;0.00;0.00;;;;;11.24;94.12;99338.88;5118640;27;46729;-67
2023/03/31 04:02:12;;;;;;;;;0.00;0.00;;;;;11.10;92.94;99305.31;5118890;27;45488;-66
2023/03/31 04:04:37;;;;;;;;;0.00;0.00;;;;;11.32;92.53;99329.66;5118959;27;45520;-66
2023/03/31 04:07:02;;;;;;;;;0.00;0.00;;;;;11.32;92.91;99334.09;5118570;27;45362;-66
2023/03/31 04:09:28;;;;;;;;;0.75;0.00;;;;;11.36;92.93;99333.03;5119015;27;45435;-66
2023/03/31 04:11:53;;;;;;;;;0.00;0.00;;;;;11.35;93.09;99317.28;5118739;27;45417;-66
2023/03/31 04:14:19;;;;;;;;;0.75;0.00;;;;;11.27;93.97;99299.19;5118484;27;45385;-66
2023/03/31 04:16:45;;;;;;;;;1.00;0.00;;;;;11.29;94.61;99294.72;5117942;27;45782;-67
2023/03/31 04:19:13;;;;;;;;;1.00;0.00;;;;;11.32;94.06;99298.03;5118179;27;46651;-66
2023/03/31 04:21:44;;;;;;;;;0.00;0.00;;;;;11.29;94.69;99289.47;5117727;27;45780;-66
2023/03/31 04:24:14;;;;;;;;;0.75;0.75;;;;;11.40;94.52;99292.41;5118049;27;45460;-66
2023/03/31 04:26:43;;;;;;;;;3.00;1.00;;;;;11.40;94.64;99284.50;5118004;27;45767;-67
2023/03/31 04:29:11;;;;;;;;;1.25;1.00;;;;;11.42;94.74;99280.00;5118790;27;45530;-66
2023/03/31 04:31:37;;;;;;;;;1.00;1.00;;;;;11.40;94.57;99271.34;5117796;27;45496;-66
2023/03/31 04:34:05;;;;;;;;;2.75;1.00;;;;;11.39;94.62;99268.78;5118185;27;45906;-67
2023/03/31 04:36:32;;;;;;;;;2.25;1.25;;;;;11.44;95.23;99266.75;5118576;27;45458;-67
2023/03/31 04:38:58;;;;;;;;;4.75;1.00;;;;;11.44;96.38;99259.72;5118453;27;46335;-67
2023/03/31 04:41:26;;;;;;;;;1.00;1.00;;;;;11.40;95.77;99254.66;5110833;27;45858;-66
2023/03/31 04:43:51;;;;;;;;;5.75;2.00;;;;;11.48;95.18;99266.50;5118251;27;45719;-66
2023/03/31 04:46:17;;;;;;;;;2.50;0.75;;;;;11.35;95.42;99233.81;5118846;27;45440;-66
2023/03/31 04:48:42;;;;;;;;;1.00;1.00;;;;;11.58;95.39;99261.63;5118967;27;46733;-65
2023/03/31 04:51:08;;;;;;;;;7.25;1.00;;;;;11.61;95.17;99247.44;5118331;27;45531;-64
2023/03/31 04:53:34;;;;;;;;;2.25;2.25;;;;;11.70;95.25;99249.59;5120856;27;45811;-65
2023/03/31 04:56:00;;;;;;;;;3.00;2.00;;;;;11.70;94.55;99243.50;5121259;27;45303;-66
2023/03/31 04:58:26;;;;;;;;;3.75;2.50;;;;;11.83;94.27;99252.47;5120081;27;45432;-66
2023/03/31 05:00:52;;;;;;;;;2.00;2.00;;;;;11.82;94.22;99253.38;5120935;27;45236;-67
2023/03/31 05:03:18;;;;;;;;;3.00;2.00;;;;;11.87;93.82;99250.53;5121029;27;45235;-66
2023/03/31 05:05:43;;;;;;;;;5.25;2.25;;;;;11.90;93.73;99240.66;5121085;27;45353;-66
2023/03/31 05:08:09;;;;;;;;;2.00;2.00;;;;;11.89;93.50;99225.75;5120685;27;45342;-67
2023/03/31 05:10:34;;;;;;;;;5.00;2.00;;;;;11.93;93.69;99221.19;5120643;27;45240;-66
2023/03/31 05:13:00;;;;;;;;;4.33;3.00;;;;;11.96;93.52;99236.88;5121073;27;45338;-67
2023/03/31 05:15:25;;;;;;;;;3.25;3.00;;;;;11.90;93.25;99226.63;5121019;27;45318;-65
2023/03/31 05:17:51;;;;;;;;;1.75;1.75;;;;;11.91;92.87;99220.41;5120631;27;47237;-66
2023/03/31 05:20:18;;;;;;;;;3.25;3.00;;;;;12.01;93.13;99230.44;5119482;27;45299;-66
2023/03/31 05:22:44;;;;;;;;;4.25;2.25;;;;;12.07;92.64;99231.03;5120738;27;45326;-66
2023/03/31 05:25:13;;;;;;;;;6.50;2.00;;;;;11.98;92.70;99221.81;5120866;27;45325;-66
2023/03/31 05:27:39;;;;;;;;;6.50;2.00;;;;;12.05;92.52;99228.47;5120532;27;45499;-66
2023/03/31 05:30:06;;;;;;;;;5.25;3.00;;;;;12.11;91.53;99220.25;5120349;27;45349;-66
2023/03/31 05:32:32;;;;;;;;;5.67;3.00;;;;;12.01;91.65;99214.59;5120807;27;45381;-66
2023/03/31 05:34:57;;;;;;;;;4.25;2.00;;;;;11.95;92.17;99214.06;5120361;27;45380;-66
2023/03/31 05:37:24;;;;;;;;;4.00;2.50;;;;;12.05;91.81;99222.34;5120359;27;46577;-66
2023/03/31 05:39:50;;;;;;;;;10.25;3.00;;;;;12.05;91.37;99199.44;5119916;27;45535;-67
2023/03/31 05:42:15;;;;;;;;;4.00;2.75;;;;;12.05;91.65;99203.88;5120262;27;45339;-66
2023/03/31 05:44:41;;;;;;;;;7.50;3.75;;;;;12.08;91.16;99209.81;5120020;27;45543;-67
2023/03/31 05:47:06;;;;;;;;;5.00;4.00;;;;;12.04;91.41;99200.41;5119827;27;45626;-67
2023/03/31 05:49:32;;;;;;;;;4.00;2.50;;;;;12.04;91.32;99202.16;5120338;27;45361;-66
2023/03/31 05:51:57;;;;;;;;;4.75;3.00;;;;;12.05;91.18;99188.91;5119958;27;45288;-66
2023/03/31 05:54:22;;;;;;;;;6.25;5.00;;;;;12.05;91.08;99195.97;5119948;27;45325;-66
2023/03/31 05:56:48;;;;;;;;;6.50;2.00;;;;;12.13;90.81;99201.69;5120207;27;46406;-66
2023/03/31 05:59:13;;;;;;;;;5.75;4.00;;;;;12.04;91.38;99181.94;5120251;27;45430;-67
2023/03/31 06:01:39;;;;;;;;;7.50;3.75;;;;;12.11;91.23;99185.06;5120411;27;45532;-66
2023/03/31 06:04:05;;;;;;;;;8.25;2.75;;;;;12.11;90.20;99178.03;5120434;27;45465;-66
2023/03/31 06:06:32;;;;;;;;;5.00;4.33;;;;;12.12;90.41;99182.34;5119995;27;45500;-66
2023/03/31 06:08:57;;;;;;;;;10.25;5.00;;;;;12.16;89.96;99173.34;5119368;27;45329;-66
2023/03/31 06:11:23;;;;;;;;;5.00;3.00;;;;;12.21;89.82;99182.78;5119319;27;45347;-67
2023/03/31 06:13:48;;;;;;;;;4.75;4.00;;;;;12.20;89.57;99176.69;5119050;27;45458;-66
2023/03/31 06:16:16;;;;;;;;;8.75;4.50;;;;;12.25;89.33;99182.53;5119867;27;46247;-67
2023/03/31 06:18:41;;;;;;;;;11.33;6.00;;;;;12.28;88.89;99173.59;5119818;27;45414;-67
2023/03/31 06:21:09;;;;;;;;;8.25;4.25;;;;;12.22;89.13;99161.59;5119853;27;45366;-67
2023/03/31 06:23:35;;;;;;;;;12.75;3.00;;;;;12.26;89.47;99170.22;5120011;27;45489;-66
2023/03/31 06:26:03;;;;;;;;;9.00;6.00;;;;;12.26;89.82;99171.06;5119630;27;45604;-67
2023/03/31 06:28:29;;;;;;;;;3.00;3.00;;;;;12.14;89.92;99143.56;5119788;27;45409;-66
2023/03/31 06:31:05;;;;;;;;;7.67;4.33;;;;;12.29;90.01;99162.97;5119707;27;45432;-66
2023/03/31 06:33:32;;;;;;;;;32.00;29.67;;;;;12.33;89.60;99169.78;5119718;27;45472;-66
2023/03/31 06:36:00;;;;;;;;;11.67;6.00;;;;;12.24;89.73;99145.69;5119672;27;45577;-67
2023/03/31 06:38:26;;;;;;;;;6.00;3.25;;;;;12.40;89.32;99159.72;5119469;27;45366;-66
2023/03/31 06:40:51;;;;;;;;;5.75;3.25;;;;;12.44;89.21;99153.31;5119315;27;45343;-66
2023/03/31 06:43:17;;;;;;;;;6.50;5.00;;;;;12.07;89.00;99085.91;5115867;27;45446;-67
2023/03/31 06:45:42;;;;;;;;;3.25;2.00;;;;;12.46;89.14;99137.41;5119358;27;45502;-67
2023/03/31 06:48:07;;;;;;;;;6.50;4.75;;;;;12.46;88.24;99137.41;5119157;27;45406;-67
2023/03/31 06:50:33;;;;;;;;;4.00;3.00;;;;;12.44;88.67;99139.28;5119311;27;45486;-67
2023/03/31 06:52:58;;;;;;;;;9.00;4.00;;;;;12.47;88.61;99139.94;5118182;27;45722;-67
2023/03/31 06:55:24;;;;;;;;;8.25;3.25;;;;;12.48;87.83;99139.03;5119099;27;46452;-67
2023/03/31 06:57:50;;;;;;;;;6.00;4.00;;;;;12.46;87.31;99140.91;5119134;27;45489;-67
2023/03/31 07:00:15;;;;;;;;;1.25;1.25;;;;;12.45;87.67;99133.09;5119474;27;45349;-67
2023/03/31 07:02:42;;;;;;;;;9.50;3.00;;;;;12.47;87.38;99129.38;5119296;27;45400;-66
2023/03/31 07:05:07;;;;;;;;;2.50;2.00;;;;;12.48;86.73;99144.31;5119062;27;46069;-67
2023/03/31 07:07:35;;;;;;;;;3.25;3.25;;;;;12.43;87.00;99133.16;5118977;27;45412;-67
2023/03/31 07:10:01;;;;;;;;;7.00;4.00;;;;;12.45;86.36;99133.91;5118746;27;45240;-67
2023/03/31 07:12:26;;;;;;;;;4.50;3.00;;;;;12.51;86.48;99141.47;5119331;27;45383;-67
2023/03/31 07:14:51;;;;;;;;;11.00;3.50;;;;;12.54;86.52;99127.25;5118983;27;45346;-67
2023/03/31 07:17:17;;;;;;;;;5.50;3.00;;;;;12.60;85.50;99132.19;5118837;27;45625;-66
2023/03/31 07:19:46;;;;;;;;;10.00;4.00;;;;;12.62;85.13;99138.25;5119054;27;45385;-67
2023/03/31 07:22:13;;;;;;;;;6.75;2.75;;;;;12.68;84.90;99135.25;5118527;27;45446;-67
2023/03/31 07:24:38;;;;;;;;;10.50;3.00;;;;;12.69;84.82;99133.44;5118730;27;45645;-67
2023/03/31 07:27:04;;;;;;;;;7.25;3.00;;;;;12.68;83.88;99135.25;5118820;27;45280;-67
2023/03/31 07:29:29;;;;;;;;;5.75;3.00;;;;;12.66;84.24;99138.91;5118813;27;45607;-67
2023/03/31 07:31:54;;;;;;;;;6.00;4.00;;;;;12.66;83.93;99137.16;5118605;27;45344;-67
2023/03/31 07:34:20;;;;;;;;;6.00;3.50;;;;;12.65;83.75;99124.88;5118082;27;46614;-67
2023/03/31 07:36:45;;;;;;;;;4.00;3.25;;;;;12.58;83.64;99112.97;5118594;27;45292;-67
2023/03/31 07:39:11;;;;;;;;;6.25;4.00;;;;;12.65;83.85;99116.06;5118206;27;45332;-67
2023/03/31 07:41:37;;;;;;;;;5.00;2.25;;;;;12.60;84.34;99100.50;5118681;27;45623;-67
2023/03/31 07:44:03;;;;;;;;;4.50;3.25;;;;;12.65;83.67;99100.22;5134508;27;46585;-67
2023/03/31 07:46:28;;;;;;;;;4.25;3.00;;;;;12.66;83.57;99105.47;5118588;27;45408;-67
2023/03/31 07:48:55;;;;;;;;;3.25;2.00;;;;;12.74;82.77;99118.19;5117424;27;45760;-67
2023/03/31 07:51:24;;;;;;;;;6.50;2.00;;;;;12.70;82.98;99112.22;5118728;27;45313;-67
2023/03/31 07:53:51;;;;;;;;;3.75;2.25;;;;;12.79;83.39;99112.66;5118128;27;46212;-67
2023/03/31 07:56:21;;;;;;;;;6.25;2.00;;;;;12.80;83.13;99103.78;5118404;27;45219;-67
2023/03/31 07:58:47;;;;;;;;;5.00;2.75;;;;;12.86;83.04;99106.91;5115008;27;45987;-66
2023/03/31 08:01:15;;;;;;;;;5.33;2.00;;;;;12.91;82.64;99097.88;5118158;27;45225;-66
2023/03/31 08:03:41;;;;;;;;;2.75;2.75;;;;;12.95;81.41;99099.38;5118081;27;46204;-66
2023/03/31 08:06:07;;;;;;;;;4.50;1.75;;;;;12.96;81.54;99096.66;5118126;27;45227;-66
2023/03/31 08:08:33;;;;;;;;;7.33;2.00;;;;;12.87;81.62;99084.00;5118173;27;45434;-66
2023/03/31 08:10:58;;;;;;;;;3.00;1.75;;;;;12.92;81.29;99076.63;5118376;27;45395;-66
2023/03/31 08:13:24;;;;;;;;;6.25;3.00;;;;;12.96;80.97;99088.72;5117869;27;47326;-66
2023/03/31 08:15:50;;;;;;;;;4.00;3.00;;;;;12.99;80.85;99087.69;5118340;27;45437;-66
2023/03/31 08:18:15;;;;;;;;;7.33;5.67;;;;;13.04;81.49;99091.78;5118043;27;45299;-66
2023/03/31 08:20:40;;;;;;;;;4.50;2.50;;;;;13.12;80.91;99090.47;5118402;27;45449;-66
2023/03/31 08:23:10;;;;;;;;;5.00;2.50;;;;;13.10;81.58;99082.63;5117683;27;46485;-66
2023/03/31 08:25:37;;;;;;;;;5.00;1.00;;;;;13.15;80.73;99077.06;5117937;27;45203;-66
2023/03/31 08:28:02;;;;;;;;;6.75;4.75;;;;;13.15;80.67;99075.25;5118113;27;45329;-67
2023/03/31 08:30:28;;;;;;;;;4.00;3.25;;;;;13.22;80.32;99081.88;5118013;27;45367;-66
2023/03/31 08:32:53;;;;;;;;;5.75;3.00;;;;;13.26;79.38;99071.97;5118520;27;46348;-66
2023/03/31 08:35:18;;;;;;;;;3.00;3.00;;;;;13.30;79.75;99073.50;5121173;27;45407;-66
2023/03/31 08:37:44;;;;;;;;;6.00;4.00;;;;;13.24;79.56;99080.00;5121625;27;45272;-66
2023/03/31 08:40:29;;;;;;;;;5.50;3.00;;;;;13.22;79.71;99066.03;5121607;27;45251;-66
2023/03/31 08:43:04;;;;;;;;;3.00;2.00;;;;;13.23;79.24;99056.31;5121252;27;46535;-66
2023/03/31 08:45:32;;;;;;;;;2.50;1.50;;;;;13.28;79.34;99083.31;5121191;27;45342;-66
2023/03/31 08:48:13;;;;;;;;;5.75;2.50;;;;;13.17;80.01;99068.09;5121194;27;45422;-66
2023/03/31 08:50:46;;;;;;;;;5.00;2.50;;;;;13.18;80.63;99080.34;5121365;27;45349;-66
2023/03/31 08:53:33;;;;;;;;;4.50;3.00;;;;;13.12;81.14;99087.81;5121212;27;45510;-66
2023/03/31 08:56:00;;;;;;;;;5.50;2.00;;;;;13.07;81.27;99077.53;5121185;27;45300;-66
2023/03/31 08:58:48;;;;;;;;;3.50;2.00;;;;;13.09;80.75;99088.84;5121219;27;45486;-66
2023/03/31 09:01:35;;;;;;;;;5.00;3.00;;;;;13.05;80.69;99067.03;5121532;27;45392;-66
2023/03/31 09:04:03;;;;;;;;;6.50;2.25;;;;;13.01;81.29;99072.59;5121046;27;45569;-66
2023/03/31 09:06:37;;;;;;;;;2.75;1.75;;;;;12.99;80.63;99069.22;5121010;27;45367;-66
2023/03/31 09:09:08;;;;;;;;;4.00;1.75;;;;;13.00;80.13;99065.63;5121020;27;45714;-66
2023/03/31 09:11:39;;;;;;;;;2.00;2.00;;;;;12.91;80.39;99052.97;5121066;27;45211;-66
2023/03/31 09:14:09;;;;;;;;;8.25;3.75;;;;;12.98;79.38;99047.22;5120831;27;45344;-67
2023/03/31 09:16:46;;;;;;;;;2.00;1.75;;;;;13.05;79.16;99050.34;5120933;27;45239;-66
2023/03/31 09:19:43;;;;;;;;;14.00;12.67;;;;;13.16;80.09;99065.56;5120822;27;45532;-66
2023/03/31 09:22:18;;;;;;;;;6.25;3.25;;;;;13.19;80.35;99060.09;5137152;27;45467;-66
2023/03/31 09:24:54;;;;;;;;;4.00;2.25;;;;;13.22;80.63;99060.72;5120330;27;46688;-66
2023/03/31 09:27:20;;;;;;;;;5.25;1.75;;;;;13.27;79.79;99067.53;5120579;27;45453;-66
2023/03/31 09:29:51;;;;;;;;;3.00;1.25;;;;;13.25;80.77;99054.41;5120867;27;45538;-66
2023/03/31 09:32:26;;;;;;;;;5.50;3.25;;;;;13.26;80.58;99045.56;5120811;27;45450;-66
2023/03/31 09:34:59;;;;;;;;;4.00;2.25;;;;;13.21;80.52;99050.25;5120411;27;45338;-67
2023/03/31 09:37:29;;;;;;;;;5.25;1.75;;;;;13.21;80.14;99040.53;5120521;27;45500;-66
2023/03/31 09:40:06;;;;;;;;;3.50;2.00;;;;;13.33;79.01;99035.44;5120483;27;45398;-66
2023/03/31 09:42:33;;;;;;;;;8.00;3.00;;;;;13.20;80.00;99033.56;5120712;27;45558;-66
2023/03/31 09:44:58;;;;;;;;;4.25;3.00;;;;;13.24;79.77;99007.78;5120133;27;45499;-66
2023/03/31 09:47:45;;;;;;;;;5.25;1.25;;;;;13.44;78.41;99054.16;5120423;27;45331;-66
2023/03/31 09:50:11;;;;;;;;;7.50;1.00;;;;;13.36;78.86;99041.44;5120432;27;45441;-66
2023/03/31 09:52:43;;;;;;;;;4.75;1.25;;;;;13.39;78.77;99032.47;5120602;27;45179;-66
2023/03/31 09:55:41;;;;;;;;;1.50;1.50;;;;;13.34;78.76;99038.00;5120275;27;45257;-66
2023/03/31 09:58:13;;;;;;;;;4.00;2.00;;;;;13.38;79.22;99047.47;5120151;27;45465;-65
2023/03/31 10:00:56;;;;;;;;;6.00;4.00;;;;;13.13;79.30;98992.59;5120338;27;45177;-66
2023/03/31 10:03:22;;;;;;;;;6.75;2.00;;;;;13.28;79.25;99017.22;5120470;27;45313;-66
2023/03/31 10:05:53;;;;;;;;;4.00;2.50;;;;;13.25;79.34;99022.69;5119434;27;45515;-66
2023/03/31 10:08:23;;;;;;;;;23.67;21.67;;;;;13.16;80.78;99024.13;5119760;27;45458;-66
2023/03/31 10:11:06;;;;;;;;;1.75;1.75;;;;;13.13;80.16;99015.50;5119863;27;45336;-66
2023/03/31 10:13:57;;;;;;;;;3.25;2.00;;;;;13.20;80.23;99011.53;5120272;27;45551;-66
2023/03/31 10:16:31;;;;;;;;;6.00;2.00;;;;;13.34;80.42;99014.22;5119443;27;46409;-66
2023/03/31 10:19:20;;;;;;;;;5.25;2.00;;;;;13.41;80.62;99012.91;5119776;27;45238;-66
2023/03/31 10:21:53;;;;;;;;;4.25;2.75;;;;;13.51;79.29;99012.34;5119892;27;45317;-66
2023/03/31 10:24:19;;;;;;;;;2.00;2.00;;;;;13.44;79.40;99000.44;5119893;27;45310;-66
2023/03/31 10:26:51;;;;;;;;;4.00;2.00;;;;;13.40;80.20;98991.84;5119649;27;47030;-66
2023/03/31 10:29:28;;;;;;;;;3.75;2.00;;;;;13.43;80.00;98999.56;5119576;27;45351;-66
2023/03/31 10:31:54;;;;;;;;;6.00;1.50;;;;;13.39;80.69;98991.00;5119655;27;45233;-66
2023/03/31 10:34:22;;;;;;;;;1.00;1.00;;;;;13.39;80.83;98995.44;5120007;27;45269;-66
2023/03/31 10:36:50;;;;;;;;;3.00;1.25;;;;;13.46;80.63;99012.59;5119551;27;46627;-66
2023/03/31 10:39:18;;;;;;;;;2.25;0.00;;;;;13.52;80.99;98998.16;5119123;27;45215;-66
2023/03/31 10:41:51;;;;;;;;;3.00;2.50;;;;;13.52;79.83;98993.72;5119653;27;45314;-66
2023/03/31 10:44:32;;;;;;;;;2.00;1.25;;;;;13.55;79.89;99005.91;5119803;27;45362;-66
2023/03/31 10:47:04;;;;;;;;;1.25;1.25;;;;;13.47;80.90;99006.38;5119263;27;45335;-66
2023/03/31 10:49:37;;;;;;;;;4.75;4.00;;;;;13.40;82.25;99000.66;5119366;27;45330;-66
2023/03/31 10:52:02;;;;;;;;;2.25;1.75;;;;;13.32;82.22;98994.09;5119507;27;45276;-66
2023/03/31 10:54:28;;;;;;;;;2.00;1.75;;;;;13.29;83.00;98997.78;5119447;27;45771;-66
2023/03/31 10:57:00;;;;;;;;;4.00;1.50;;;;;13.30;83.20;99006.56;5117114;27;46940;-66
2023/03/31 10:59:41;;;;;;;;;1.75;1.50;;;;;13.21;83.99;99010.63;5119100;27;45441;-66
2023/03/31 11:02:28;;;;;;;;;7.75;1.75;;;;;13.14;83.93;98994.31;5119405;27;45402;-65
2023/03/31 11:05:24;;;;;;;;;3.50;2.00;;;;;13.21;83.16;98994.75;5119673;27;45255;-66
2023/03/31 11:07:52;;;;;;;;;3.00;0.00;;;;;13.17;82.15;99001.16;5075717;28;46560;-66
2023/03/31 11:10:32;;;;;;;;;8.33;7.00;;;;;13.20;82.43;99006.25;5058428;28;45292;-66
2023/03/31 11:13:24;;;;;;;;;2.50;0.00;;;;;13.12;81.00;98987.41;5075762;28;45470;-66
2023/03/31 11:15:54;;;;;;;;;1.00;1.00;;;;;13.17;81.17;98988.81;5076114;28;45531;-66
2023/03/31 11:18:43;;;;;;;;;1.00;1.00;;;;;13.28;77.70;98942.38;5075689;28;45743;-66
2023/03/31 11:21:30;;;;;;;;;3.67;2.00;;;;;13.26;78.17;98992.69;5075744;28;45330;-66
2023/03/31 11:24:13;;;;;;;;;3.67;2.00;;;;;13.31;78.94;98995.03;5075733;28;45475;-66
2023/03/31 11:27:14;;;;;;;;;3.25;1.00;;;;;13.36;77.88;99008.84;5075823;28;45380;-66
2023/03/31 11:29:46;;;;;;;;;2.75;1.50;;;;;13.33;76.95;98995.78;5015022;28;45449;-66
2023/03/31 11:32:30;;;;;;;;;1.25;0.00;;;;;13.38;76.40;98980.53;5015331;28;45558;-66
2023/03/31 11:35:03;;;;;;;;;0.25;0.00;;;;;13.39;75.64;98982.25;5015471;28;45331;-66
2023/03/31 11:37:49;;;;;;;;;1.00;0.00;;;;;13.33;76.27;98978.16;5015400;28;45452;-65
2023/03/31 11:40:46;;;;;;;;;0.00;0.00;;;;;13.41;74.92;98975.88;5014758;28;47155;-66
2023/03/31 11:43:47;;;;;;;;;0.50;0.00;;;;;13.36;75.31;98961.25;4956243;28;45444;-66
2023/03/31 11:46:34;;;;;;;;;1.00;0.00;;;;;13.04;75.26;98921.81;4975633;28;45334;-66
2023/03/31 11:49:05;;;;;;;;;2.25;0.00;;;;;13.17;75.04;98962.41;4975994;28;45403;-66
2023/03/31 11:51:39;;;;;;;;;1.00;1.00;;;;;13.04;76.92;98977.28;4975346;28;46305;-66